KEKM

Elkhart Municipal Airport

Elkhart, Indiana, USA
METAR KEKM 211552Z 10005KT 10SM CLR M16/M25 A3059 RMK AO2
Observed Flight Rules
Jan-21 @ 15:52 UTC (30 minutes ago) Visual Flight Rules
Wind Visibility Clouds
100° at 5 knots 10 miles
  • Clear skies
Temperatures Readings
Current -16°C / 3°F
Dewpoint -25°C / -13°F
Humidity 46%
Altimeter 30.59" Hg
Pressure 1035.91 hPa
Elevation 237
METAR KEKM 211552Z 10005KT 10SM CLR M16/M25 A3059 RMK AO2
Observed Flight Rules
Jan-21 @ 15:52 UTC
(30 minutes ago)
VFR
Wind Visibility
100° at 5 knots 10 miles
Clouds
  • Clear skies
Temperature Dewpoint
-16°C / 3°F -25°C / -13°F
Humidity Altimeter Pressure
46% 30.59" Hg 1035.91 hPa